createdAt,value
2018-05-13T00:02:32.137Z,8.20
2018-05-13T00:07:35.425Z,7.13
2018-05-13T00:12:38.667Z,8.10
2018-05-13T00:17:41.927Z,7.83
2018-05-13T00:22:45.187Z,8.43
2018-05-13T00:27:48.445Z,6.77
2018-05-13T00:32:52.464Z,8.23
2018-05-13T00:37:55.733Z,7.00
2018-05-13T00:42:58.980Z,7.63
2018-05-13T00:48:03.008Z,7.60
2018-05-13T00:53:07.033Z,7.00
2018-05-13T00:58:11.041Z,8.07
2018-05-13T01:03:14.353Z,7.07
2018-05-13T01:08:18.147Z,5.53
2018-05-13T01:13:21.399Z,6.73
2018-05-13T01:18:24.696Z,6.13
2018-05-13T01:23:27.928Z,5.67
2018-05-13T01:28:31.180Z,5.17
2018-05-13T01:33:34.554Z,6.37
2018-05-13T01:38:37.794Z,5.37
2018-05-13T01:43:41.063Z,5.90
2018-05-13T01:48:44.329Z,5.33
2018-05-13T01:53:47.691Z,6.33
2018-05-13T01:58:51.221Z,6.37
2018-05-13T02:03:54.488Z,5.53
2018-05-13T02:08:57.758Z,5.80
2018-05-13T02:14:01.032Z,5.70
2018-05-13T02:19:04.301Z,5.50
2018-05-13T02:24:08.332Z,9.13
2018-05-13T02:29:11.640Z,6.70
2018-05-13T02:34:14.905Z,9.43
2018-05-13T02:39:18.174Z,5.87
2018-05-13T02:44:21.448Z,5.50
2018-05-13T02:49:24.712Z,6.30
2018-05-13T02:54:27.967Z,5.37
2018-05-13T02:59:31.992Z,5.63
2018-05-13T03:04:35.263Z,5.90
2018-05-13T03:09:38.524Z,6.30
2018-05-13T03:14:41.775Z,6.20
2018-05-13T03:19:45.036Z,5.83
2018-05-13T03:24:49.063Z,5.70
2018-05-13T03:29:52.322Z,6.57
2018-05-13T03:34:55.623Z,6.77
2018-05-13T03:39:58.850Z,8.80
2018-05-13T03:45:02.105Z,9.37
2018-05-13T03:50:05.379Z,7.80
2018-05-13T03:55:08.635Z,8.80
2018-05-13T04:00:11.904Z,6.97
2018-05-13T04:05:15.151Z,8.87
2018-05-13T04:10:45.584Z,8.87
2018-05-13T04:15:48.837Z,10.00
2018-05-13T04:20:52.099Z,10.63
2018-05-13T04:25:55.360Z,9.57
2018-05-13T04:30:58.607Z,7.90
2018-05-13T04:36:02.618Z,7.43
2018-05-13T04:41:05.870Z,9.83
2018-05-13T04:46:09.151Z,6.20
2018-05-13T04:51:13.238Z,5.43
2018-05-13T04:56:17.259Z,5.77
2018-05-13T05:01:20.538Z,5.53
2018-05-13T05:06:23.792Z,8.77
2018-05-13T05:11:27.047Z,6.20
2018-05-13T05:16:30.295Z,10.70
2018-05-13T05:21:33.554Z,8.20
2018-05-13T05:26:36.803Z,7.67
2018-05-13T05:31:40.059Z,10.77
2018-05-13T05:36:43.308Z,8.90
2018-05-13T05:41:46.555Z,6.03
2018-05-13T05:46:49.815Z,10.47
2018-05-13T05:51:53.080Z,7.73
2018-05-13T05:56:56.344Z,12.23
2018-05-13T06:01:59.599Z,11.17
2018-05-13T06:07:03.619Z,14.83
2018-05-13T06:12:07.643Z,16.87
2018-05-13T06:17:11.062Z,17.43
2018-05-13T06:22:15.089Z,9.10
2018-05-13T06:27:19.120Z,18.40
2018-05-13T06:32:22.379Z,15.73
2018-05-13T06:37:26.416Z,12.27
2018-05-13T06:42:29.675Z,14.43
2018-05-13T06:47:32.948Z,12.30
2018-05-13T06:52:36.214Z,22.83
2018-05-13T06:57:39.492Z,17.47
2018-05-13T07:02:42.806Z,15.03
2018-05-13T07:07:46.057Z,16.60
2018-05-13T07:12:49.312Z,21.43
2018-05-13T07:17:53.355Z,14.40
2018-05-13T07:22:57.383Z,20.03
2018-05-13T07:28:00.656Z,15.03
2018-05-13T07:33:03.920Z,10.37
2018-05-13T07:38:07.190Z,12.20
2018-05-13T07:43:11.228Z,14.10
2018-05-13T07:48:14.493Z,22.47
2018-05-13T07:53:18.676Z,14.80
2018-05-13T07:58:21.943Z,16.30
2018-05-13T08:03:26.103Z,13.90
2018-05-13T08:08:29.363Z,12.47
2018-05-13T08:13:32.643Z,20.50
2018-05-13T08:18:35.911Z,19.33
2018-05-13T08:23:39.967Z,14.37
2018-05-13T08:28:43.249Z,15.90
2018-05-13T08:33:46.539Z,13.63
2018-05-13T08:38:49.811Z,27.83
2018-05-13T08:43:53.089Z,18.03
2018-05-13T08:48:56.364Z,28.73
2018-05-13T08:53:59.681Z,17.87
2018-05-13T08:59:02.907Z,30.43
2018-05-13T09:04:06.311Z,14.90
2018-05-13T09:09:10.344Z,30.83
2018-05-13T09:14:13.670Z,33.83
2018-05-13T09:19:16.916Z,20.63
2018-05-13T09:24:20.184Z,15.83
2018-05-13T09:29:23.443Z,21.10
2018-05-13T09:34:26.700Z,19.07
2018-05-13T09:39:30.071Z,15.53
2018-05-13T09:44:33.236Z,25.00
2018-05-13T09:49:36.487Z,13.53
2018-05-13T09:54:40.540Z,27.67
2018-05-13T09:59:43.840Z,20.60
2018-05-13T10:04:47.119Z,31.47
2018-05-13T10:09:50.384Z,20.67
2018-05-13T10:14:54.588Z,20.67
2018-05-13T10:19:58.823Z,29.40
2018-05-13T10:25:02.099Z,24.50
2018-05-13T10:30:05.369Z,28.73
2018-05-13T10:35:08.652Z,24.70
2018-05-13T10:40:11.915Z,32.17
2018-05-13T10:45:15.163Z,26.83
2018-05-13T10:50:18.432Z,20.57
2018-05-13T10:55:21.695Z,33.20
2018-05-13T11:00:24.959Z,34.87
2018-05-13T11:05:28.223Z,38.47
2018-05-13T11:10:31.520Z,24.73
2018-05-13T11:15:36.247Z,20.27
2018-05-13T11:20:39.586Z,24.60
2018-05-13T11:25:42.763Z,21.70
2018-05-13T11:30:46.019Z,26.23
2018-05-13T11:35:49.296Z,36.90
2018-05-13T11:40:52.571Z,27.73
2018-05-13T11:45:56.595Z,22.77
2018-05-13T11:50:59.859Z,37.13
2018-05-13T11:56:03.132Z,16.60
2018-05-13T12:01:06.401Z,17.60
2018-05-13T12:06:09.672Z,25.07
2018-05-13T12:11:12.940Z,19.30
2018-05-13T12:16:16.205Z,29.27
2018-05-13T12:21:19.481Z,14.47
2018-05-13T12:26:22.747Z,16.30
2018-05-13T12:31:25.990Z,17.20
2018-05-13T12:36:29.264Z,20.03
2018-05-13T12:41:32.541Z,21.83
2018-05-13T12:46:35.799Z,33.93
2018-05-13T12:51:39.833Z,19.33
2018-05-13T12:56:43.088Z,23.40
2018-05-13T13:01:46.361Z,22.27
2018-05-13T13:06:49.630Z,18.17
2018-05-13T13:11:52.879Z,21.40
2018-05-13T13:16:56.901Z,19.03
2018-05-13T13:22:00.160Z,24.70
2018-05-13T13:27:03.442Z,23.30
2018-05-13T13:32:06.699Z,17.63
2018-05-13T13:37:09.962Z,17.93
2018-05-13T13:42:13.239Z,17.47
2018-05-13T13:47:16.513Z,19.77
2018-05-13T13:52:19.762Z,20.33
2018-05-13T13:57:23.036Z,21.07
2018-05-13T14:02:26.856Z,19.53
2018-05-13T14:07:30.207Z,21.63
2018-05-13T14:12:33.492Z,22.20
2018-05-13T14:17:37.547Z,21.10
2018-05-13T14:22:40.823Z,22.57
2018-05-13T14:27:44.873Z,28.00
2018-05-13T14:32:48.145Z,17.93
2018-05-13T14:37:51.409Z,19.10
2018-05-13T14:42:54.701Z,21.97
2018-05-13T14:47:58.699Z,20.33
2018-05-13T14:53:02.738Z,18.67
2018-05-13T14:58:06.037Z,16.97
2018-05-13T15:03:09.260Z,21.60
2018-05-13T15:08:12.543Z,24.27
2018-05-13T15:13:16.567Z,25.93
2018-05-13T15:18:20.730Z,26.27
2018-05-13T15:23:23.987Z,27.63
2018-05-13T15:28:27.254Z,26.27
2018-05-13T15:33:30.520Z,23.83
2018-05-13T15:38:35.063Z,19.53
2018-05-13T15:43:40.862Z,16.70
2018-05-13T15:48:44.134Z,18.83
2018-05-13T15:53:48.468Z,21.73
2018-05-13T15:58:52.512Z,22.40
2018-05-13T16:03:55.903Z,21.43
2018-05-13T16:08:59.226Z,20.50
2018-05-13T16:14:05.073Z,16.83
2018-05-13T16:19:08.644Z,18.00
2018-05-13T16:24:12.567Z,19.57
2018-05-13T16:29:15.833Z,22.47
2018-05-13T16:34:19.106Z,20.23
2018-05-13T16:39:22.376Z,20.50
2018-05-13T16:44:25.656Z,23.90
2018-05-13T16:49:28.969Z,24.10
2018-05-13T16:54:32.216Z,26.43
2018-05-13T16:59:35.471Z,23.17
2018-05-13T17:04:38.790Z,20.97
2018-05-13T17:09:47.235Z,23.00
2018-05-13T17:14:50.514Z,21.37
2018-05-13T17:19:54.585Z,21.03
2018-05-13T17:24:58.608Z,22.10
2018-05-13T17:30:01.872Z,21.70
2018-05-13T17:35:05.145Z,27.73
2018-05-13T17:40:08.452Z,29.93
2018-05-13T17:45:11.711Z,30.90
2018-05-13T17:50:15.767Z,27.30
2018-05-13T17:55:19.055Z,29.33
2018-05-13T18:00:22.347Z,26.57
2018-05-13T18:05:25.621Z,30.63
2018-05-13T18:10:28.916Z,29.77
2018-05-13T18:15:32.191Z,29.80
2018-05-13T18:20:36.223Z,30.67
2018-05-13T18:25:40.267Z,31.53
2018-05-13T18:30:43.532Z,32.50
2018-05-13T18:35:47.713Z,28.53
2018-05-13T18:40:51.014Z,28.23
2018-05-13T18:45:54.280Z,29.67
2018-05-13T18:50:57.580Z,24.03
2018-05-13T18:56:00.865Z,28.70
2018-05-13T19:01:04.136Z,28.43
2018-05-13T19:06:08.171Z,30.13
2018-05-13T19:11:11.514Z,27.87
2018-05-13T19:16:14.827Z,25.53
2018-05-13T19:21:18.089Z,21.87
2018-05-13T19:26:22.108Z,22.73
2018-05-13T19:31:25.403Z,21.87
2018-05-13T19:36:28.664Z,19.60
2018-05-13T19:41:31.968Z,21.60
2018-05-13T19:46:35.255Z,24.30
2018-05-13T19:51:38.543Z,25.77
2018-05-13T19:56:42.581Z,29.93
2018-05-13T20:01:45.929Z,31.80
2018-05-13T20:06:50.135Z,28.40
2018-05-13T20:11:53.407Z,29.60
2018-05-13T20:16:56.684Z,28.67
2018-05-13T20:21:59.951Z,21.57
2018-05-13T20:27:03.212Z,23.30
2018-05-13T20:32:06.484Z,25.87
2018-05-13T20:37:09.751Z,29.53
2018-05-13T20:42:13.853Z,25.67
2018-05-13T20:47:17.143Z,23.10
2018-05-13T20:52:20.415Z,23.43
2018-05-13T20:57:23.695Z,26.13
2018-05-13T21:02:26.984Z,29.00
2018-05-13T21:07:30.259Z,27.27
2018-05-13T21:12:36.862Z,25.97
2018-05-13T21:17:41.675Z,24.03
2018-05-13T21:22:44.946Z,25.60
2018-05-13T21:27:48.238Z,23.10
2018-05-13T21:32:52.120Z,24.27
2018-05-13T21:37:55.407Z,31.07
2018-05-13T21:42:59.432Z,29.67
2018-05-13T21:48:04.019Z,31.70
2018-05-13T21:53:07.329Z,37.53
2018-05-13T21:58:10.599Z,41.70
2018-05-13T22:03:14.645Z,37.60
2018-05-13T22:08:17.912Z,33.93
2018-05-13T22:13:23.199Z,34.13
2018-05-13T22:18:28.409Z,32.73
2018-05-13T22:23:31.675Z,34.93
2018-05-13T22:28:36.001Z,41.00
2018-05-13T22:33:39.253Z,36.63
2018-05-13T22:38:42.548Z,48.87
2018-05-13T22:43:45.839Z,38.77
2018-05-13T22:48:49.120Z,35.47
2018-05-13T22:53:54.089Z,36.90
2018-05-13T22:58:57.346Z,33.27
2018-05-13T23:04:00.687Z,37.23
2018-05-13T23:09:05.731Z,36.50
2018-05-13T23:14:14.582Z,38.83
2018-05-13T23:19:18.304Z,38.50
2018-05-13T23:24:21.575Z,39.50
2018-05-13T23:29:24.847Z,40.97
2018-05-13T23:34:28.208Z,42.83
2018-05-13T23:39:32.205Z,42.50
2018-05-13T23:44:35.497Z,41.33
2018-05-13T23:49:38.805Z,41.37
2018-05-13T23:54:42.096Z,40.10
2018-05-13T23:59:45.391Z,40.23
